createdAt,value
2019-03-21T00:00:28.352Z,19.77
2019-03-21T00:02:57.886Z,20.52
2019-03-21T00:05:30.016Z,21.37
2019-03-21T00:07:59.462Z,19.25
2019-03-21T00:10:32.029Z,19.52
2019-03-21T00:13:01.773Z,19.55
2019-03-21T00:15:40.283Z,18.90
2019-03-21T00:18:12.614Z,19.12
2019-03-21T00:20:42.123Z,19.45
2019-03-21T00:23:11.689Z,18.73
2019-03-21T00:25:41.136Z,19.95
2019-03-21T00:28:10.634Z,20.43
2019-03-21T00:30:40.149Z,20.32
2019-03-21T00:33:09.604Z,20.87
2019-03-21T00:35:39.157Z,20.20
2019-03-21T00:38:08.656Z,21.72
2019-03-21T00:40:43.770Z,22.77
2019-03-21T00:43:13.286Z,22.15
2019-03-21T00:45:42.905Z,22.90
2019-03-21T00:48:16.340Z,23.63
2019-03-21T00:50:45.929Z,23.30
2019-03-21T00:53:15.514Z,23.60
2019-03-21T00:55:48.407Z,23.45
2019-03-21T00:58:17.903Z,23.38
2019-03-21T01:00:53.410Z,24.40
2019-03-21T01:03:22.893Z,24.45
2019-03-21T01:05:52.408Z,25.43
2019-03-21T01:08:21.878Z,22.67
2019-03-21T01:10:52.245Z,24.10
2019-03-21T01:13:22.233Z,24.67
2019-03-21T01:15:51.781Z,24.60
2019-03-21T01:18:21.267Z,24.05
2019-03-21T01:20:51.816Z,24.45
2019-03-21T01:23:21.297Z,25.12
2019-03-21T01:25:54.113Z,24.55
2019-03-21T01:28:23.559Z,25.08
2019-03-21T01:30:53.039Z,24.70
2019-03-21T01:33:22.488Z,25.25
2019-03-21T01:35:52.052Z,24.67
2019-03-21T01:38:21.497Z,24.72
2019-03-21T01:40:58.990Z,25.65
2019-03-21T01:43:28.492Z,25.15
2019-03-21T01:45:59.213Z,24.40
2019-03-21T01:48:28.789Z,23.98
2019-03-21T01:50:58.287Z,23.95
2019-03-21T01:53:27.748Z,24.18
2019-03-21T01:55:57.302Z,25.85
2019-03-21T01:58:26.913Z,24.77
2019-03-21T02:00:57.443Z,26.30
2019-03-21T02:03:26.988Z,26.05
2019-03-21T02:05:56.441Z,26.37
2019-03-21T02:08:25.925Z,25.60
2019-03-21T02:10:55.572Z,26.07
2019-03-21T02:13:25.423Z,26.65
2019-03-21T02:15:54.864Z,26.33
2019-03-21T02:18:24.358Z,25.93
2019-03-21T02:20:53.874Z,25.48
2019-03-21T02:23:23.597Z,25.10
2019-03-21T02:25:53.153Z,24.80
2019-03-21T02:28:22.607Z,25.05
2019-03-21T02:30:55.125Z,25.43
2019-03-21T02:33:35.362Z,25.40
2019-03-21T02:36:10.390Z,24.32
2019-03-21T02:38:39.885Z,25.60
2019-03-21T02:41:12.269Z,25.10
2019-03-21T02:43:41.826Z,25.48
2019-03-21T02:46:11.278Z,24.70
2019-03-21T02:48:40.785Z,25.50
2019-03-21T02:51:10.215Z,25.52
2019-03-21T02:53:40.152Z,24.77
2019-03-21T02:56:17.361Z,24.63
2019-03-21T02:58:46.810Z,24.02
2019-03-21T03:01:16.299Z,25.43
2019-03-21T03:03:45.746Z,24.20
2019-03-21T03:06:15.222Z,25.08
2019-03-21T03:08:44.703Z,24.43
2019-03-21T03:11:22.212Z,24.02
2019-03-21T03:13:52.079Z,23.75
2019-03-21T03:16:23.200Z,25.17
2019-03-21T03:18:52.650Z,23.70
2019-03-21T03:21:22.124Z,24.23
2019-03-21T03:23:51.586Z,24.92
2019-03-21T03:26:21.062Z,23.05
2019-03-21T03:28:50.531Z,23.22
2019-03-21T03:31:20.090Z,23.15
2019-03-21T03:33:49.549Z,24.90
2019-03-21T03:36:19.050Z,24.20
2019-03-21T03:38:48.555Z,22.85
2019-03-21T03:41:20.165Z,24.50
2019-03-21T03:43:49.814Z,23.02
2019-03-21T03:46:19.368Z,23.60
2019-03-21T03:48:48.851Z,23.90
2019-03-21T03:51:18.520Z,24.20
2019-03-21T03:53:47.966Z,24.70
2019-03-21T03:56:17.437Z,24.87
2019-03-21T03:58:55.758Z,25.32
2019-03-21T04:01:25.232Z,24.80
2019-03-21T04:03:54.775Z,25.45
2019-03-21T04:06:24.325Z,24.00
2019-03-21T04:08:53.825Z,24.10
2019-03-21T04:11:23.758Z,23.70
2019-03-21T04:13:53.286Z,24.18
2019-03-21T04:16:22.764Z,24.10
2019-03-21T04:18:52.238Z,24.85
2019-03-21T04:21:21.749Z,23.70
2019-03-21T04:23:51.196Z,24.47
2019-03-21T04:26:32.874Z,25.08
2019-03-21T04:29:02.336Z,23.75
2019-03-21T04:31:31.824Z,23.87
2019-03-21T04:34:04.305Z,24.07
2019-03-21T04:36:37.107Z,24.98
2019-03-21T04:39:13.901Z,24.67
2019-03-21T04:41:45.762Z,25.43
2019-03-21T04:44:22.499Z,25.37
2019-03-21T04:46:53.401Z,23.87
2019-03-21T04:49:23.477Z,23.12
2019-03-21T04:51:53.040Z,24.40
2019-03-21T04:54:22.526Z,24.67
2019-03-21T04:56:52.028Z,24.60
2019-03-21T04:59:21.550Z,24.92
2019-03-21T05:01:51.131Z,26.02
2019-03-21T05:04:20.613Z,25.35
2019-03-21T05:06:50.152Z,24.82
2019-03-21T05:09:19.591Z,23.57
2019-03-21T05:11:49.074Z,23.60
2019-03-21T05:14:19.596Z,25.17
2019-03-21T05:16:49.170Z,25.08
2019-03-21T05:19:18.611Z,25.88
2019-03-21T05:21:48.103Z,24.25
2019-03-21T05:24:17.576Z,24.05
2019-03-21T05:26:47.081Z,24.63
2019-03-21T05:29:16.790Z,25.10
2019-03-21T05:31:46.295Z,24.87
2019-03-21T05:34:15.983Z,24.85
2019-03-21T05:36:45.485Z,24.25
2019-03-21T05:39:15.000Z,24.57
2019-03-21T05:41:44.826Z,24.72
2019-03-21T05:44:23.153Z,24.57
2019-03-21T05:46:52.629Z,24.05
2019-03-21T05:49:22.142Z,23.83
2019-03-21T05:51:51.577Z,23.95
2019-03-21T05:54:21.057Z,23.62
2019-03-21T05:56:50.544Z,24.92
2019-03-21T05:59:19.994Z,24.00
2019-03-21T06:01:49.471Z,24.83
2019-03-21T06:04:18.955Z,24.65
2019-03-21T06:06:55.447Z,23.00
2019-03-21T06:09:24.892Z,24.18
2019-03-21T06:11:57.575Z,24.50
2019-03-21T06:14:27.554Z,25.68
2019-03-21T06:16:57.049Z,25.50
2019-03-21T06:19:29.582Z,24.07
2019-03-21T06:22:14.195Z,23.73
2019-03-21T06:24:49.556Z,24.00
2019-03-21T06:27:27.063Z,24.77
2019-03-21T06:29:56.905Z,25.43
2019-03-21T06:32:27.287Z,23.32
2019-03-21T06:34:57.520Z,24.27
2019-03-21T06:37:28.966Z,23.77
2019-03-21T06:39:58.825Z,25.70
2019-03-21T06:42:28.299Z,26.02
2019-03-21T06:44:57.787Z,24.95
2019-03-21T06:47:27.561Z,25.32
2019-03-21T06:49:57.006Z,25.40
2019-03-21T06:52:26.528Z,26.42
2019-03-21T06:54:56.055Z,26.77
2019-03-21T06:57:25.566Z,25.77
2019-03-21T06:59:55.041Z,24.92
2019-03-21T07:02:24.676Z,25.48
2019-03-21T07:04:54.241Z,25.15
2019-03-21T07:07:24.323Z,26.50
2019-03-21T07:09:53.803Z,26.85
2019-03-21T07:12:23.287Z,25.80
2019-03-21T07:14:52.767Z,26.40
2019-03-21T07:17:23.082Z,26.57
2019-03-21T07:19:52.715Z,25.50
2019-03-21T07:22:22.173Z,25.85
2019-03-21T07:24:51.783Z,26.40
2019-03-21T07:27:21.261Z,26.80
2019-03-21T07:29:50.718Z,27.05
2019-03-21T07:32:20.267Z,25.92
2019-03-21T07:34:49.742Z,25.97
2019-03-21T07:37:19.229Z,28.95
2019-03-21T07:39:48.675Z,25.88
2019-03-21T07:42:18.152Z,26.77
2019-03-21T07:44:47.635Z,26.45
2019-03-21T07:47:17.127Z,26.97
2019-03-21T07:49:46.644Z,26.62
2019-03-21T07:52:16.140Z,26.52
2019-03-21T07:54:45.653Z,27.90
2019-03-21T07:57:15.140Z,26.27
2019-03-21T07:59:44.588Z,26.90
2019-03-21T08:02:14.082Z,25.85
2019-03-21T08:04:43.524Z,26.93
2019-03-21T08:07:13.141Z,25.40
2019-03-21T08:09:42.739Z,25.15
2019-03-21T08:12:12.308Z,25.95
2019-03-21T08:14:41.780Z,25.77
2019-03-21T08:17:11.319Z,25.43
2019-03-21T08:19:40.923Z,25.92
2019-03-21T08:22:10.380Z,26.93
2019-03-21T08:24:39.861Z,26.27
2019-03-21T08:27:09.361Z,27.97
2019-03-21T08:29:38.846Z,25.88
2019-03-21T08:32:08.298Z,26.82
2019-03-21T08:34:37.814Z,26.73
2019-03-21T08:37:07.347Z,25.65
2019-03-21T08:39:36.789Z,27.15
2019-03-21T08:42:06.291Z,27.58
2019-03-21T08:44:35.745Z,26.10
2019-03-21T08:47:05.404Z,27.13
2019-03-21T08:49:34.897Z,27.90
2019-03-21T08:52:04.437Z,25.75
2019-03-21T08:54:35.048Z,26.60
2019-03-21T08:57:04.731Z,26.62
2019-03-21T08:59:34.302Z,26.85
2019-03-21T09:02:04.579Z,27.20
2019-03-21T09:04:34.032Z,26.75
2019-03-21T09:07:04.633Z,26.48
2019-03-21T09:09:34.108Z,27.35
2019-03-21T09:12:04.594Z,26.95
2019-03-21T09:14:36.699Z,28.00
2019-03-21T09:17:06.397Z,27.58
2019-03-21T09:19:35.901Z,27.02
2019-03-21T09:22:05.470Z,27.93
2019-03-21T09:24:34.906Z,27.87
2019-03-21T09:27:04.651Z,27.27
2019-03-21T09:29:34.173Z,29.02
2019-03-21T09:32:04.563Z,27.82
2019-03-21T09:34:34.126Z,27.65
2019-03-21T09:37:04.565Z,27.05
2019-03-21T09:39:34.084Z,28.20
2019-03-21T09:42:04.563Z,29.23
2019-03-21T09:44:34.041Z,28.42
2019-03-21T09:47:04.589Z,27.85
2019-03-21T09:49:34.117Z,30.10
2019-03-21T09:52:04.556Z,29.32
2019-03-21T09:54:34.096Z,30.27
2019-03-21T09:57:04.429Z,29.75
2019-03-21T09:59:33.960Z,28.60
2019-03-21T10:02:04.454Z,29.37
2019-03-21T10:04:33.893Z,29.32
2019-03-21T10:07:04.462Z,29.68
2019-03-21T10:09:33.953Z,29.70
2019-03-21T10:12:04.516Z,30.55
2019-03-21T10:14:34.239Z,31.68
2019-03-21T10:17:04.604Z,32.10
2019-03-21T10:19:35.088Z,29.75
2019-03-21T10:22:04.581Z,30.92
2019-03-21T10:24:34.213Z,31.12
2019-03-21T10:27:04.589Z,30.55
2019-03-21T10:29:34.077Z,31.17
2019-03-21T10:32:13.914Z,29.98
2019-03-21T10:34:35.601Z,30.52
2019-03-21T10:37:05.081Z,30.70
2019-03-21T10:39:34.580Z,30.15
2019-03-21T10:42:04.434Z,31.00
2019-03-21T10:44:33.924Z,30.00
2019-03-21T10:47:04.468Z,30.00
2019-03-21T10:49:34.076Z,31.45
2019-03-21T10:52:04.541Z,31.70
2019-03-21T10:54:34.036Z,30.72
2019-03-21T10:57:04.667Z,30.30
2019-03-21T10:59:34.117Z,31.68
2019-03-21T11:02:07.590Z,31.23
2019-03-21T11:04:35.799Z,31.45
2019-03-21T11:07:04.116Z,30.88
2019-03-21T11:09:33.623Z,30.12
2019-03-21T11:12:03.155Z,31.90
2019-03-21T11:14:32.633Z,31.40
2019-03-21T11:17:02.113Z,31.95
2019-03-21T11:19:31.593Z,30.08
2019-03-21T11:22:06.320Z,30.43
2019-03-21T11:24:33.179Z,31.45
2019-03-21T11:27:03.136Z,29.95
2019-03-21T11:29:32.598Z,32.42
2019-03-21T11:32:02.097Z,30.80
2019-03-21T11:34:32.208Z,30.95
2019-03-21T11:37:01.732Z,31.62
2019-03-21T11:39:31.229Z,31.35
2019-03-21T11:42:00.722Z,31.45
2019-03-21T11:44:30.363Z,31.48
2019-03-21T11:46:59.818Z,33.00
2019-03-21T11:49:29.364Z,33.85
2019-03-21T11:51:58.876Z,31.62
2019-03-21T11:54:28.414Z,33.38
2019-03-21T11:56:57.927Z,31.95
2019-03-21T11:59:41.371Z,31.93
2019-03-21T12:01:58.589Z,33.18
2019-03-21T12:04:30.855Z,33.20
2019-03-21T12:07:00.341Z,32.48
2019-03-21T12:09:29.816Z,32.80
2019-03-21T12:11:59.263Z,31.50
2019-03-21T12:14:28.756Z,32.60
2019-03-21T12:16:58.251Z,32.85
2019-03-21T12:19:27.878Z,30.25
2019-03-21T12:21:57.361Z,32.03
2019-03-21T12:24:26.810Z,31.62
2019-03-21T12:26:56.322Z,31.68
2019-03-21T12:29:25.906Z,33.20
2019-03-21T12:31:55.395Z,32.33
2019-03-21T12:34:24.849Z,32.98
2019-03-21T12:36:54.331Z,32.00
2019-03-21T12:39:23.796Z,31.15
2019-03-21T12:41:53.349Z,30.40
2019-03-21T12:44:22.898Z,32.35
2019-03-21T12:46:52.387Z,31.15
2019-03-21T12:49:21.940Z,31.15
2019-03-21T12:51:51.466Z,31.42
2019-03-21T12:54:20.917Z,30.02
2019-03-21T12:56:52.972Z,30.08
2019-03-21T12:59:21.695Z,30.30
2019-03-21T13:01:51.223Z,28.95
2019-03-21T13:04:20.711Z,25.97
2019-03-21T13:06:50.201Z,28.40
2019-03-21T13:09:19.979Z,28.92
2019-03-21T13:11:49.458Z,30.43
2019-03-21T13:14:18.980Z,27.93
2019-03-21T13:16:48.541Z,28.65
2019-03-21T13:19:18.033Z,27.13
2019-03-21T13:21:47.513Z,28.87
2019-03-21T13:24:19.463Z,26.73
2019-03-21T13:26:48.339Z,31.15
2019-03-21T13:29:17.848Z,33.02
2019-03-21T13:31:47.337Z,36.10
2019-03-21T13:34:16.811Z,29.63
2019-03-21T13:36:46.314Z,28.77
2019-03-21T13:39:15.763Z,29.15
2019-03-21T13:41:45.255Z,30.37
2019-03-21T13:44:14.741Z,29.70
2019-03-21T13:46:44.226Z,30.23
2019-03-21T13:49:13.685Z,28.57
2019-03-21T13:51:43.187Z,30.15
2019-03-21T13:54:12.678Z,28.75
2019-03-21T13:56:42.173Z,29.40
2019-03-21T13:59:11.670Z,28.70
2019-03-21T14:01:41.161Z,28.80
2019-03-21T14:04:10.695Z,28.05
2019-03-21T14:06:40.185Z,28.80
2019-03-21T14:09:09.925Z,30.65
2019-03-21T14:11:39.431Z,29.32
2019-03-21T14:14:09.869Z,29.40
2019-03-21T14:16:39.429Z,28.92
2019-03-21T14:19:08.914Z,28.88
2019-03-21T14:21:39.508Z,30.20
2019-03-21T14:24:09.104Z,30.50
2019-03-21T14:26:39.619Z,29.77
2019-03-21T14:29:12.844Z,30.36
2019-03-21T14:31:41.414Z,30.27
2019-03-21T14:34:10.879Z,31.40
2019-03-21T14:36:40.377Z,29.97
2019-03-21T14:39:09.865Z,30.85
2019-03-21T14:41:39.360Z,31.20
2019-03-21T14:44:09.046Z,30.05
2019-03-21T14:46:38.488Z,30.40
2019-03-21T14:49:08.083Z,31.62
2019-03-21T14:51:37.552Z,30.02
2019-03-21T14:54:07.069Z,32.30
2019-03-21T14:56:36.546Z,29.12
2019-03-21T14:59:06.102Z,30.48
2019-03-21T15:01:35.610Z,28.42
2019-03-21T15:04:05.114Z,26.77
2019-03-21T15:06:34.662Z,30.85
2019-03-21T15:09:06.379Z,28.17
2019-03-21T15:11:37.980Z,27.00
2019-03-21T15:14:07.447Z,26.80
2019-03-21T15:16:36.996Z,29.40
2019-03-21T15:19:06.878Z,30.05
2019-03-21T15:21:36.370Z,31.15
2019-03-21T15:24:05.933Z,30.08
2019-03-21T15:26:35.545Z,31.23
2019-03-21T15:29:05.098Z,29.30
2019-03-21T15:31:34.546Z,27.77
2019-03-21T15:34:04.541Z,26.62
2019-03-21T15:36:34.033Z,28.73
2019-03-21T15:39:07.344Z,28.76
2019-03-21T15:41:38.130Z,28.80
2019-03-21T15:44:07.721Z,30.08
2019-03-21T15:46:38.785Z,30.17
2019-03-21T15:49:08.502Z,29.32
2019-03-21T15:51:38.344Z,32.70
2019-03-21T15:54:07.916Z,32.95
2019-03-21T15:56:37.434Z,31.77
2019-03-21T15:59:06.928Z,32.67
2019-03-21T16:01:36.440Z,32.13
2019-03-21T16:04:06.013Z,32.48
2019-03-21T16:06:35.526Z,33.35
2019-03-21T16:09:06.967Z,32.40
2019-03-21T16:11:36.391Z,34.05
2019-03-21T16:14:06.040Z,33.45
2019-03-21T16:16:35.515Z,33.60
2019-03-21T16:19:05.194Z,34.45
2019-03-21T16:21:34.638Z,36.33
2019-03-21T16:24:05.772Z,36.45
2019-03-21T16:26:37.142Z,35.85
2019-03-21T16:29:06.642Z,35.78
2019-03-21T16:31:36.213Z,36.83
2019-03-21T16:34:05.693Z,37.00
2019-03-21T16:36:35.182Z,36.03
2019-03-21T16:39:06.808Z,38.00
2019-03-21T16:41:36.254Z,37.95
2019-03-21T16:44:05.946Z,35.98
2019-03-21T16:46:35.366Z,36.77
2019-03-21T16:49:04.986Z,36.77
2019-03-21T16:51:34.430Z,36.87
2019-03-21T16:54:16.242Z,38.15
2019-03-21T16:56:36.878Z,35.45
2019-03-21T16:59:06.384Z,37.67
2019-03-21T17:01:35.884Z,36.98
2019-03-21T17:04:05.356Z,36.95
2019-03-21T17:06:34.827Z,38.23
2019-03-21T17:09:07.297Z,37.88
2019-03-21T17:11:36.791Z,37.60
2019-03-21T17:14:07.119Z,37.70
2019-03-21T17:16:36.679Z,38.20
2019-03-21T17:19:06.240Z,37.88
2019-03-21T17:21:35.866Z,37.53
2019-03-21T17:24:07.449Z,36.95
2019-03-21T17:26:37.417Z,37.95
2019-03-21T17:29:06.930Z,37.48
2019-03-21T17:31:36.403Z,38.48
2019-03-21T17:34:06.042Z,36.35
2019-03-21T17:36:35.705Z,36.30
2019-03-21T17:39:08.079Z,35.23
2019-03-21T17:41:37.742Z,36.03
2019-03-21T17:44:07.770Z,37.88
2019-03-21T17:46:37.232Z,37.08
2019-03-21T17:49:06.733Z,37.07
2019-03-21T17:51:36.204Z,36.90
2019-03-21T17:54:05.813Z,36.65
2019-03-21T17:56:35.363Z,37.23
2019-03-21T17:59:04.879Z,37.30
2019-03-21T18:01:35.411Z,35.98
2019-03-21T18:04:05.557Z,37.10
2019-03-21T18:06:36.163Z,37.78
2019-03-21T18:09:08.091Z,37.35
2019-03-21T18:11:39.097Z,36.58
2019-03-21T18:14:08.872Z,38.23
2019-03-21T18:16:38.576Z,38.02
2019-03-21T18:19:08.311Z,36.25
2019-03-21T18:21:37.905Z,37.60
2019-03-21T18:24:07.699Z,38.93
2019-03-21T18:26:37.206Z,37.25
2019-03-21T18:29:06.778Z,39.10
2019-03-21T18:31:36.345Z,38.02
2019-03-21T18:34:05.843Z,36.98
2019-03-21T18:36:35.578Z,39.10
2019-03-21T18:39:07.107Z,39.65
2019-03-21T18:41:36.674Z,39.23
2019-03-21T18:44:06.318Z,38.35
2019-03-21T18:46:36.256Z,38.53
2019-03-21T18:49:06.078Z,40.15
2019-03-21T18:51:35.643Z,41.42
2019-03-21T18:54:05.288Z,39.23
2019-03-21T18:56:34.795Z,38.73
2019-03-21T18:59:04.621Z,41.10
2019-03-21T19:01:34.133Z,39.83
2019-03-21T19:04:04.578Z,40.40
2019-03-21T19:06:34.154Z,38.38
2019-03-21T19:09:07.152Z,40.86
2019-03-21T19:11:36.706Z,42.62
2019-03-21T19:14:06.230Z,40.48
2019-03-21T19:16:36.959Z,42.50
2019-03-21T19:19:06.468Z,41.73
2019-03-21T19:21:35.975Z,40.92
2019-03-21T19:24:05.579Z,42.67
2019-03-21T19:26:35.659Z,42.55
2019-03-21T19:29:05.409Z,41.28
2019-03-21T19:31:35.017Z,40.78
2019-03-21T19:34:04.535Z,43.85
2019-03-21T19:36:34.071Z,41.40
2019-03-21T19:39:07.318Z,42.10
2019-03-21T19:41:36.899Z,44.00
2019-03-21T19:44:06.531Z,43.23
2019-03-21T19:46:35.979Z,43.15
2019-03-21T19:49:05.567Z,43.68
2019-03-21T19:51:35.029Z,41.75
2019-03-21T19:54:04.945Z,41.98
2019-03-21T19:56:34.418Z,41.25
2019-03-21T19:59:04.485Z,43.58
2019-03-21T20:01:34.029Z,44.30
2019-03-21T20:04:04.549Z,43.68
2019-03-21T20:06:34.076Z,44.33
2019-03-21T20:09:06.526Z,41.85
2019-03-21T20:11:36.017Z,44.15
2019-03-21T20:14:05.548Z,46.65
2019-03-21T20:16:35.291Z,45.23
2019-03-21T20:19:04.950Z,46.37
2019-03-21T20:21:34.383Z,45.67
2019-03-21T20:24:04.569Z,45.45
2019-03-21T20:26:34.133Z,44.60
2019-03-21T20:29:04.951Z,47.58
2019-03-21T20:31:34.848Z,44.55
2019-03-21T20:34:05.514Z,43.10
2019-03-21T20:36:36.167Z,45.12
2019-03-21T20:39:08.051Z,45.10
2019-03-21T20:41:37.642Z,46.95
2019-03-21T20:44:14.984Z,45.63
2019-03-21T20:46:39.278Z,46.63
2019-03-21T20:49:09.196Z,46.48
2019-03-21T20:51:38.820Z,45.25
2019-03-21T20:54:08.330Z,47.75
2019-03-21T20:56:37.916Z,46.25
2019-03-21T20:59:07.512Z,47.65
2019-03-21T21:01:37.040Z,45.60
2019-03-21T21:04:06.677Z,50.12
2019-03-21T21:06:36.193Z,47.00
2019-03-21T21:09:07.411Z,49.45
2019-03-21T21:11:37.494Z,46.45
2019-03-21T21:14:08.209Z,48.65
2019-03-21T21:16:37.711Z,48.15
2019-03-21T21:19:07.242Z,47.35
2019-03-21T21:21:36.928Z,47.58
2019-03-21T21:24:06.611Z,48.33
2019-03-21T21:26:36.100Z,50.52
2019-03-21T21:29:06.152Z,48.73
2019-03-21T21:31:35.838Z,49.35
2019-03-21T21:34:05.691Z,47.60
2019-03-21T21:36:35.275Z,48.73
2019-03-21T21:39:07.237Z,47.90
2019-03-21T21:41:37.122Z,47.27
2019-03-21T21:44:06.769Z,44.75
2019-03-21T21:46:36.308Z,46.18
2019-03-21T21:49:05.978Z,46.18
2019-03-21T21:51:35.465Z,45.55
2019-03-21T21:54:05.017Z,46.65
2019-03-21T21:56:34.488Z,45.43
2019-03-21T21:59:04.525Z,46.68
2019-03-21T22:01:34.051Z,44.90
2019-03-21T22:04:05.279Z,47.17
2019-03-21T22:06:34.801Z,45.30
2019-03-21T22:09:06.107Z,47.10
2019-03-21T22:11:35.741Z,46.05
2019-03-21T22:14:05.571Z,44.40
2019-03-21T22:16:35.020Z,45.67
2019-03-21T22:19:04.680Z,42.88
2019-03-21T22:21:34.190Z,46.45
2019-03-21T22:24:04.569Z,45.33
2019-03-21T22:26:34.012Z,43.75
2019-03-21T22:29:04.429Z,46.18
2019-03-21T22:31:33.917Z,42.62
2019-03-21T22:34:04.531Z,45.60
2019-03-21T22:36:34.031Z,44.45
2019-03-21T22:39:06.540Z,42.17
2019-03-21T22:41:36.084Z,42.05
2019-03-21T22:44:06.019Z,43.58
2019-03-21T22:46:35.581Z,44.18
2019-03-21T22:49:05.051Z,43.58
2019-03-21T22:51:34.507Z,44.45
2019-03-21T22:54:04.487Z,44.25
2019-03-21T22:56:41.077Z,43.73
2019-03-21T22:59:05.119Z,45.45
2019-03-21T23:01:34.651Z,44.88
2019-03-21T23:04:04.567Z,45.20
2019-03-21T23:06:35.099Z,44.33
2019-03-21T23:09:07.670Z,45.70
2019-03-21T23:11:37.202Z,43.98
2019-03-21T23:14:06.643Z,45.48
2019-03-21T23:16:36.207Z,45.20
2019-03-21T23:19:05.725Z,46.75
2019-03-21T23:21:35.199Z,46.73
2019-03-21T23:24:04.772Z,45.38
2019-03-21T23:26:34.319Z,45.93
2019-03-21T23:29:04.424Z,47.58
2019-03-21T23:31:34.039Z,45.63
2019-03-21T23:34:04.481Z,46.58
2019-03-21T23:36:34.965Z,46.77
2019-03-21T23:39:06.241Z,46.63
2019-03-21T23:41:35.741Z,46.63
2019-03-21T23:44:05.364Z,48.33
2019-03-21T23:46:34.902Z,48.68
2019-03-21T23:49:04.554Z,48.17
2019-03-21T23:51:34.205Z,49.20
2019-03-21T23:54:04.704Z,48.90
2019-03-21T23:56:34.174Z,46.48
2019-03-21T23:59:04.551Z,47.50
